NCAR-RAP Real-Time Weather Data

Output produced by METARs form (06 May 2021  15:38 UTC)
found at http://weather.rap.ucar.edu/surface/
 
KEVV 061454Z 21011KT 10SM BKN110 16/04 A3017 RMK AO2 SLP214 T01560039 58003 $
KEVV 061354Z 18006KT 10SM FEW110 14/06 A3018 RMK AO2 SLP221 T01390061 $
KEVV 061254Z 23004KT 10SM SCT120 11/08 A3018 RMK AO2 SLP221 T01110078 $
KEVV 061154Z 00000KT 10SM CLR 09/08 A3017 RMK AO2 SLP217 T00890078 10089 20067 53006 $
KEVV 061054Z 00000KT 10SM CLR 07/06 A3015 RMK AO2 SLP208 T00670061 $
KEVV 060954Z AUTO 00000KT 10SM CLR 07/06 A3015 RMK AO2 SLP209 T00720061 $
KEVV 060854Z AUTO 00000KT 10SM CLR 07/06 A3016 RMK AO2 SLP211 T00720061 53003 $
KEVV 060754Z AUTO 36003KT 10SM CLR 07/06 A3014 RMK AO2 SLP207 T00720056 $
KEVV 060654Z AUTO 00000KT 10SM CLR 07/06 A3015 RMK AO2 SLP208 T00720061 $
KEVV 060554Z AUTO 00000KT 10SM CLR 08/06 A3015 RMK AO2 SLP208 T00780061 10167 20078 401830078 58007 $
KEVV 060454Z AUTO 00000KT 10SM CLR 09/07 A3017 RMK AO2 SLP215 T00890072 $
KEVV 060354Z AUTO 24004KT 10SM CLR 09/07 A3018 RMK AO2 SLP220 T00890072 $
KEVV 060254Z 00000KT 10SM CLR 11/07 A3017 RMK AO2 SLP215 T01060067 52014 $
KEVV 060154Z 33003KT 10SM CLR 13/06 A3015 RMK AO2 SLP210 T01280056 $
KEVV 060054Z 32003KT 10SM CLR 14/06 A3014 RMK AO2 SLP205 T01390056